createdAt,value
2016-10-22T00:00:00.322Z,0
2016-10-22T00:01:10.863Z,0
2016-10-22T00:02:21.425Z,0
2016-10-22T00:03:31.979Z,0
2016-10-22T00:04:42.522Z,0
2016-10-22T00:05:53.124Z,0
2016-10-22T00:07:03.695Z,0
2016-10-22T00:08:14.258Z,0
2016-10-22T00:09:24.840Z,0
2016-10-22T00:10:35.408Z,0
2016-10-22T00:11:46.061Z,0
2016-10-22T00:12:56.627Z,0
2016-10-22T00:14:07.168Z,0
2016-10-22T00:15:17.660Z,0
2016-10-22T00:16:28.246Z,0
2016-10-22T00:17:38.812Z,0
2016-10-22T00:18:49.336Z,0
2016-10-22T00:19:59.918Z,0
2016-10-22T00:21:10.444Z,0
2016-10-22T00:22:21.021Z,0
2016-10-22T00:23:31.539Z,0
2016-10-22T00:24:42.048Z,0
2016-10-22T00:25:52.602Z,0
2016-10-22T00:27:03.146Z,0
2016-10-22T00:28:13.719Z,0
2016-10-22T00:29:24.363Z,0
2016-10-22T00:30:34.925Z,0
2016-10-22T00:31:45.484Z,0
2016-10-22T00:32:56.015Z,0
2016-10-22T00:34:06.538Z,0
2016-10-22T00:35:17.192Z,0
2016-10-22T00:36:27.712Z,0
2016-10-22T00:37:38.254Z,0
2016-10-22T00:38:48.864Z,0
2016-10-22T00:39:59.453Z,0
2016-10-22T00:41:10.031Z,0
2016-10-22T00:42:20.619Z,0
2016-10-22T00:43:31.212Z,0
2016-10-22T00:44:41.789Z,0
2016-10-22T00:45:52.373Z,0
2016-10-22T00:47:02.956Z,0
2016-10-22T00:48:13.551Z,0
2016-10-22T00:49:24.128Z,0
2016-10-22T00:50:34.803Z,0
2016-10-22T00:51:45.391Z,0
2016-10-22T00:52:56.079Z,0
2016-10-22T00:54:06.698Z,0
2016-10-22T00:55:17.271Z,0
2016-10-22T00:56:27.857Z,0
2016-10-22T00:57:38.475Z,0
2016-10-22T00:58:49.063Z,0
2016-10-22T00:59:59.645Z,0
2016-10-22T01:01:10.243Z,0
2016-10-22T01:02:20.840Z,0
2016-10-22T01:03:31.427Z,0
2016-10-22T01:04:42.115Z,0
2016-10-22T01:05:53.187Z,0
2016-10-22T01:07:03.794Z,0
2016-10-22T01:08:14.376Z,0
2016-10-22T01:09:24.964Z,0
2016-10-22T01:10:35.655Z,0
2016-10-22T01:11:46.229Z,0
2016-10-22T01:12:56.814Z,0
2016-10-22T01:14:07.408Z,0
2016-10-22T01:15:18.025Z,0
2016-10-22T01:16:28.621Z,0
2016-10-22T01:17:39.197Z,0
2016-10-22T01:18:49.788Z,0
2016-10-22T01:20:00.867Z,0
2016-10-22T01:21:11.443Z,0
2016-10-22T01:22:22.015Z,0
2016-10-22T01:23:32.637Z,0
2016-10-22T01:24:43.255Z,0
2016-10-22T01:25:53.851Z,0
2016-10-22T01:27:04.431Z,0
2016-10-22T01:28:15.143Z,0
2016-10-22T01:29:25.737Z,0
2016-10-22T01:30:36.331Z,0
2016-10-22T01:31:46.947Z,0
2016-10-22T01:32:57.554Z,0
2016-10-22T01:34:08.243Z,0
2016-10-22T01:35:18.833Z,0
2016-10-22T01:36:29.409Z,0
2016-10-22T01:37:40.032Z,0
2016-10-22T01:38:50.607Z,0
2016-10-22T01:40:01.187Z,0
2016-10-22T01:41:11.775Z,0
2016-10-22T01:42:22.361Z,0
2016-10-22T01:43:32.951Z,0
2016-10-22T01:44:43.526Z,0
2016-10-22T01:45:54.211Z,0
2016-10-22T01:47:04.797Z,0
2016-10-22T01:48:15.392Z,0
2016-10-22T01:49:25.985Z,0
2016-10-22T01:50:36.603Z,0
2016-10-22T01:51:47.192Z,0
2016-10-22T01:52:57.784Z,0
2016-10-22T01:54:08.371Z,0
2016-10-22T01:55:18.957Z,0
2016-10-22T01:56:29.532Z,0
2016-10-22T01:57:40.224Z,0
2016-10-22T01:58:50.811Z,0
2016-10-22T02:00:01.435Z,0
2016-10-22T02:01:12.021Z,0
2016-10-22T02:02:22.607Z,0
2016-10-22T02:03:33.229Z,0
2016-10-22T02:04:43.804Z,0
2016-10-22T02:05:54.375Z,0
2016-10-22T02:07:04.958Z,0
2016-10-22T02:08:15.533Z,0
2016-10-22T02:09:26.218Z,0
2016-10-22T02:10:36.808Z,0
2016-10-22T02:11:47.412Z,0
2016-10-22T02:12:57.997Z,0
2016-10-22T02:14:08.575Z,0
2016-10-22T02:15:19.145Z,0
2016-10-22T02:16:29.723Z,0
2016-10-22T02:17:40.288Z,0
2016-10-22T02:18:50.872Z,0
2016-10-22T02:20:01.449Z,0
2016-10-22T02:21:12.123Z,0
2016-10-22T02:22:22.703Z,0
2016-10-22T02:23:33.284Z,0
2016-10-22T02:24:43.869Z,0
2016-10-22T02:25:54.438Z,0
2016-10-22T02:27:05.010Z,0
2016-10-22T02:28:15.588Z,0
2016-10-22T02:29:26.150Z,0
2016-10-22T02:30:36.732Z,0
2016-10-22T02:31:47.298Z,0
2016-10-22T02:32:58.613Z,0
2016-10-22T02:34:09.184Z,0
2016-10-22T02:35:19.763Z,0
2016-10-22T02:36:30.335Z,0
2016-10-22T02:37:40.911Z,0
2016-10-22T02:38:51.493Z,0
2016-10-22T02:40:02.080Z,0
2016-10-22T02:41:13.156Z,0
2016-10-22T02:42:23.741Z,0
2016-10-22T02:43:34.325Z,0
2016-10-22T02:44:45.003Z,0
2016-10-22T02:45:55.585Z,0
2016-10-22T02:47:06.169Z,0
2016-10-22T02:48:16.760Z,0
2016-10-22T02:49:27.347Z,0
2016-10-22T02:50:38.038Z,0
2016-10-22T02:51:48.618Z,0
2016-10-22T02:52:59.205Z,0
2016-10-22T02:54:09.791Z,0
2016-10-22T02:55:20.359Z,0
2016-10-22T02:56:31.154Z,0
2016-10-22T02:57:41.739Z,0
2016-10-22T02:58:52.317Z,0
2016-10-22T03:00:02.945Z,0
2016-10-22T03:01:13.556Z,0
2016-10-22T03:02:24.241Z,0
2016-10-22T03:03:34.827Z,0
2016-10-22T03:04:45.409Z,0
2016-10-22T03:05:56.027Z,0
2016-10-22T03:07:06.611Z,0
2016-10-22T03:08:17.547Z,0
2016-10-22T03:09:28.126Z,0
2016-10-22T03:10:38.708Z,0
2016-10-22T03:11:49.288Z,0
2016-10-22T03:12:59.862Z,0
2016-10-22T03:14:10.539Z,0
2016-10-22T03:15:21.139Z,0
2016-10-22T03:16:31.723Z,0
2016-10-22T03:17:42.292Z,0
2016-10-22T03:18:52.879Z,0
2016-10-22T03:20:03.460Z,0
2016-10-22T03:21:14.052Z,0
2016-10-22T03:22:24.636Z,0
2016-10-22T03:23:35.222Z,0
2016-10-22T03:24:45.810Z,0
2016-10-22T03:25:56.444Z,0
2016-10-22T03:27:06.962Z,0
2016-10-22T03:28:17.550Z,0
2016-10-22T03:29:28.106Z,0
2016-10-22T03:30:38.647Z,0
2016-10-22T03:31:49.809Z,0
2016-10-22T03:33:00.321Z,0
2016-10-22T03:34:11.328Z,0
2016-10-22T03:35:22.379Z,0
2016-10-22T03:36:33.378Z,0
2016-10-22T03:37:44.356Z,0
2016-10-22T03:38:55.317Z,0
2016-10-22T03:40:05.889Z,0
2016-10-22T03:41:16.896Z,0
2016-10-22T03:42:27.461Z,0
2016-10-22T03:43:38.046Z,0
2016-10-22T03:44:49.047Z,0
2016-10-22T03:45:59.600Z,0
2016-10-22T03:47:10.621Z,0
2016-10-22T03:48:21.151Z,0
2016-10-22T03:49:31.758Z,0
2016-10-22T03:50:42.814Z,0
2016-10-22T03:51:53.342Z,0
2016-10-22T03:53:04.356Z,0
2016-10-22T03:54:15.383Z,0
2016-10-22T03:55:26.034Z,0
2016-10-22T03:56:36.596Z,0
2016-10-22T03:57:47.132Z,0
2016-10-22T03:58:57.660Z,0
2016-10-22T04:00:08.635Z,0
2016-10-22T04:01:19.589Z,0
2016-10-22T04:02:30.092Z,0
2016-10-22T04:03:41.059Z,0
2016-10-22T04:04:51.551Z,0
2016-10-22T04:06:02.525Z,0
2016-10-22T04:07:13.164Z,0
2016-10-22T04:08:23.659Z,0
2016-10-22T04:09:34.204Z,0
2016-10-22T04:10:44.687Z,0
2016-10-22T04:11:55.226Z,0
2016-10-22T04:13:05.819Z,0
2016-10-22T04:14:16.318Z,0
2016-10-22T04:15:26.791Z,0
2016-10-22T04:16:37.273Z,0
2016-10-22T04:17:47.822Z,0
2016-10-22T04:18:58.934Z,0
2016-10-22T04:20:09.502Z,0
2016-10-22T04:21:20.001Z,0
2016-10-22T04:22:30.557Z,0
2016-10-22T04:23:41.078Z,0
2016-10-22T04:24:51.645Z,0
2016-10-22T04:26:02.194Z,0
2016-10-22T04:27:13.196Z,0
2016-10-22T04:28:23.707Z,0
2016-10-22T04:29:34.744Z,0
2016-10-22T04:30:45.372Z,0
2016-10-22T04:31:55.847Z,0
2016-10-22T04:33:06.383Z,0
2016-10-22T04:34:17.008Z,0
2016-10-22T04:35:27.523Z,0
2016-10-22T04:36:38.146Z,0
2016-10-22T04:37:48.653Z,0
2016-10-22T04:38:59.176Z,0
2016-10-22T04:40:09.671Z,0
2016-10-22T04:41:20.686Z,0
2016-10-22T04:42:31.375Z,0
2016-10-22T04:43:41.956Z,0
2016-10-22T04:44:52.491Z,0
2016-10-22T04:46:03.498Z,0
2016-10-22T04:47:14.051Z,0
2016-10-22T04:48:24.575Z,0
2016-10-22T04:49:35.171Z,0
2016-10-22T04:50:45.728Z,0
2016-10-22T04:51:56.773Z,0
2016-10-22T04:53:07.288Z,0
2016-10-22T04:54:17.958Z,0
2016-10-22T04:55:28.536Z,0
2016-10-22T04:56:39.582Z,0
2016-10-22T04:57:50.589Z,0
2016-10-22T04:59:01.153Z,0
2016-10-22T05:00:11.809Z,0
2016-10-22T05:01:22.344Z,0
2016-10-22T05:02:32.932Z,0
2016-10-22T05:03:43.442Z,0
2016-10-22T05:04:53.958Z,0
2016-10-22T05:06:04.514Z,0
2016-10-22T05:07:15.004Z,0
2016-10-22T05:08:25.492Z,0
2016-10-22T05:09:36.504Z,0
2016-10-22T05:10:47.054Z,0
2016-10-22T05:11:57.664Z,0
2016-10-22T05:13:08.190Z,0
2016-10-22T05:14:18.680Z,0
2016-10-22T05:15:29.642Z,0
2016-10-22T05:16:40.173Z,0
2016-10-22T05:17:50.654Z,0
2016-10-22T05:19:01.182Z,0
2016-10-22T05:20:11.682Z,0
2016-10-22T05:21:22.696Z,0
2016-10-22T05:22:33.189Z,0
2016-10-22T05:23:43.859Z,0
2016-10-22T05:24:54.348Z,0
2016-10-22T05:26:04.859Z,0
2016-10-22T05:27:15.342Z,0
2016-10-22T05:28:25.821Z,0
2016-10-22T05:29:36.294Z,0
2016-10-22T05:30:46.810Z,0
2016-10-22T05:31:57.337Z,0
2016-10-22T05:33:07.867Z,0
2016-10-22T05:34:18.355Z,0
2016-10-22T05:35:28.959Z,0
2016-10-22T05:36:39.903Z,0
2016-10-22T05:37:50.371Z,0
2016-10-22T05:39:00.827Z,0
2016-10-22T05:40:11.292Z,0
2016-10-22T05:41:21.753Z,0
2016-10-22T05:42:32.221Z,0
2016-10-22T05:43:42.678Z,0
2016-10-22T05:44:53.145Z,0
2016-10-22T05:46:03.611Z,0
2016-10-22T05:47:14.178Z,0
2016-10-22T05:48:24.638Z,0
2016-10-22T05:49:35.108Z,0
2016-10-22T05:50:45.568Z,0
2016-10-22T05:51:56.036Z,0
2016-10-22T05:53:06.496Z,0
2016-10-22T05:54:16.954Z,0
2016-10-22T05:55:27.405Z,0
2016-10-22T05:56:37.903Z,0
2016-10-22T05:57:48.375Z,0
2016-10-22T05:58:58.936Z,0
2016-10-22T06:00:09.397Z,0
2016-10-22T06:01:19.859Z,0
2016-10-22T06:02:30.322Z,0
2016-10-22T06:03:40.790Z,0
2016-10-22T06:04:51.248Z,0
2016-10-22T06:06:01.721Z,0
2016-10-22T06:07:12.215Z,0
2016-10-22T06:08:22.680Z,0
2016-10-22T06:09:33.146Z,0
2016-10-22T06:10:43.728Z,0
2016-10-22T06:11:54.191Z,0
2016-10-22T06:13:04.709Z,0
2016-10-22T06:14:15.284Z,0
2016-10-22T06:15:25.824Z,0
2016-10-22T06:16:36.362Z,0
2016-10-22T06:17:46.889Z,0
2016-10-22T06:18:57.435Z,0
2016-10-22T06:20:07.986Z,0
2016-10-22T06:21:18.526Z,0
2016-10-22T06:22:29.169Z,0
2016-10-22T06:23:39.652Z,0
2016-10-22T06:24:50.204Z,0
2016-10-22T06:26:00.755Z,0
2016-10-22T06:27:11.315Z,0
2016-10-22T06:28:21.958Z,0
2016-10-22T06:29:32.431Z,0
2016-10-22T06:30:43.484Z,0
2016-10-22T06:31:54.048Z,0
2016-10-22T06:33:04.615Z,0
2016-10-22T06:34:15.118Z,0
2016-10-22T06:35:25.651Z,0
2016-10-22T06:36:36.711Z,0
2016-10-22T06:37:47.211Z,0
2016-10-22T06:38:57.716Z,0
2016-10-22T06:40:08.236Z,0
2016-10-22T06:41:18.774Z,0
2016-10-22T06:42:29.292Z,0
2016-10-22T06:43:39.860Z,0
2016-10-22T06:44:50.404Z,0
2016-10-22T06:46:01.036Z,0
2016-10-22T06:47:11.545Z,0
2016-10-22T06:48:22.065Z,0
2016-10-22T06:49:32.538Z,0
2016-10-22T06:50:43.532Z,0
2016-10-22T06:51:54.174Z,0
2016-10-22T06:53:04.707Z,0
2016-10-22T06:54:15.197Z,0
2016-10-22T06:55:25.689Z,0
2016-10-22T06:56:36.163Z,0
2016-10-22T06:57:46.680Z,0
2016-10-22T06:58:57.197Z,0
2016-10-22T07:00:07.706Z,0
2016-10-22T07:01:18.168Z,0
2016-10-22T07:02:28.665Z,0
2016-10-22T07:03:39.277Z,0
2016-10-22T07:04:49.798Z,0
2016-10-22T07:06:00.298Z,0
2016-10-22T07:07:10.803Z,0
2016-10-22T07:08:21.306Z,0
2016-10-22T07:09:31.769Z,0
2016-10-22T07:10:42.319Z,0
2016-10-22T07:11:52.788Z,0
2016-10-22T07:13:03.281Z,0
2016-10-22T07:14:13.804Z,0
2016-10-22T07:15:24.424Z,0
2016-10-22T07:16:34.933Z,0
2016-10-22T07:17:45.476Z,0
2016-10-22T07:18:55.968Z,0
2016-10-22T07:20:06.420Z,0
2016-10-22T07:21:16.879Z,0
2016-10-22T07:22:27.826Z,0
2016-10-22T07:23:38.775Z,0
2016-10-22T07:24:49.230Z,0
2016-10-22T07:25:59.695Z,0
2016-10-22T07:27:10.264Z,0
2016-10-22T07:28:20.725Z,0
2016-10-22T07:29:31.191Z,0
2016-10-22T07:30:41.657Z,0
2016-10-22T07:31:52.120Z,0
2016-10-22T07:33:02.582Z,0
2016-10-22T07:34:13.058Z,0
2016-10-22T07:35:23.505Z,0
2016-10-22T07:36:34.012Z,0
2016-10-22T07:37:44.478Z,0
2016-10-22T07:38:55.044Z,0
2016-10-22T07:40:05.511Z,0
2016-10-22T07:41:15.973Z,0
2016-10-22T07:42:26.472Z,0
2016-10-22T07:43:36.934Z,0
2016-10-22T07:44:47.503Z,0
2016-10-22T07:45:57.965Z,0
2016-10-22T07:47:08.427Z,0
2016-10-22T07:48:18.889Z,0
2016-10-22T07:49:29.339Z,0
2016-10-22T07:50:39.811Z,0
2016-10-22T07:51:50.274Z,0
2016-10-22T07:53:00.819Z,0
2016-10-22T07:54:11.345Z,0
2016-10-22T07:55:21.915Z,0
2016-10-22T07:56:32.467Z,0
2016-10-22T07:57:43.061Z,0
2016-10-22T07:58:53.598Z,0
2016-10-22T08:00:04.115Z,0
2016-10-22T08:01:14.620Z,0
2016-10-22T08:02:25.232Z,0
2016-10-22T08:03:35.766Z,0
2016-10-22T08:04:46.292Z,0
2016-10-22T08:05:56.827Z,0
2016-10-22T08:07:07.454Z,0
2016-10-22T08:08:18.119Z,4
2016-10-22T08:09:28.670Z,4
2016-10-22T08:10:39.196Z,4
2016-10-22T08:11:49.711Z,0
2016-10-22T08:13:00.261Z,4
2016-10-22T08:14:10.886Z,8
2016-10-22T08:15:21.430Z,8
2016-10-22T08:16:31.977Z,8
2016-10-22T08:17:42.533Z,16
2016-10-22T08:18:53.066Z,16
2016-10-22T08:20:03.687Z,24
2016-10-22T08:21:14.255Z,28
2016-10-22T08:22:24.748Z,40
2016-10-22T08:23:35.355Z,44
2016-10-22T08:24:46.394Z,44
2016-10-22T08:25:56.959Z,56
2016-10-22T08:27:07.538Z,64
2016-10-22T08:28:18.080Z,72
2016-10-22T08:29:28.614Z,80
2016-10-22T08:30:39.186Z,88
2016-10-22T08:31:49.849Z,88
2016-10-22T08:33:00.371Z,104
2016-10-22T08:34:10.960Z,148
2016-10-22T08:35:21.484Z,148
2016-10-22T08:36:32.054Z,140
2016-10-22T08:37:42.557Z,168
2016-10-22T08:38:53.113Z,188
2016-10-22T08:40:03.633Z,204
2016-10-22T08:41:14.194Z,220
2016-10-22T08:42:24.732Z,220
2016-10-22T08:43:35.419Z,244
2016-10-22T08:44:45.997Z,308
2016-10-22T08:45:56.543Z,404
2016-10-22T08:47:07.092Z,440
2016-10-22T08:48:17.633Z,452
2016-10-22T08:49:28.290Z,564
2016-10-22T08:50:38.791Z,544
2016-10-22T08:51:49.378Z,592
2016-10-22T08:52:59.931Z,712
2016-10-22T08:54:10.478Z,848
2016-10-22T08:55:21.013Z,984
2016-10-22T08:56:31.567Z,1032
2016-10-22T08:57:42.125Z,1176
2016-10-22T08:58:52.649Z,1300
2016-10-22T09:00:03.184Z,1336
2016-10-22T09:01:13.826Z,1392
2016-10-22T09:02:24.391Z,1436
2016-10-22T09:03:34.935Z,1652
2016-10-22T09:04:45.956Z,1704
2016-10-22T09:05:56.567Z,1820
2016-10-22T09:07:07.123Z,1956
2016-10-22T09:08:18.215Z,2040
2016-10-22T09:09:28.766Z,2092
2016-10-22T09:10:39.311Z,1700
2016-10-22T09:11:49.832Z,1716
2016-10-22T09:13:00.515Z,2512
2016-10-22T09:14:11.081Z,2392
2016-10-22T09:15:21.612Z,2584
2016-10-22T09:16:32.166Z,2716
2016-10-22T09:17:42.713Z,2492
2016-10-22T09:18:53.247Z,2744
2016-10-22T09:20:03.760Z,3028
2016-10-22T09:21:14.311Z,3652
2016-10-22T09:22:24.843Z,3768
2016-10-22T09:23:35.396Z,3548
2016-10-22T09:24:46.072Z,4888
2016-10-22T09:25:56.620Z,4296
2016-10-22T09:27:07.657Z,4568
2016-10-22T09:28:18.200Z,4332
2016-10-22T09:29:28.729Z,4976
2016-10-22T09:30:39.274Z,4676
2016-10-22T09:31:49.803Z,4976
2016-10-22T09:33:00.379Z,5056
2016-10-22T09:34:10.971Z,5184
2016-10-22T09:35:22.047Z,5084
2016-10-22T09:36:32.724Z,4680
2016-10-22T09:37:43.312Z,4540
2016-10-22T09:38:53.932Z,3960
2016-10-22T09:40:04.515Z,4332
2016-10-22T09:41:15.168Z,4460
2016-10-22T09:42:25.851Z,4724
2016-10-22T09:43:36.430Z,5560
2016-10-22T09:44:47.016Z,5492
2016-10-22T09:45:57.607Z,6044
2016-10-22T09:47:08.194Z,6220
2016-10-22T09:48:18.778Z,4988
2016-10-22T09:49:29.352Z,6568
2016-10-22T09:50:39.931Z,5252
2016-10-22T09:51:50.512Z,5052
2016-10-22T09:53:01.089Z,5052
2016-10-22T09:54:11.714Z,4480
2016-10-22T09:55:22.926Z,6036
2016-10-22T09:56:33.503Z,6564
2016-10-22T09:57:44.161Z,8100
2016-10-22T09:58:54.791Z,9904
2016-10-22T10:00:05.473Z,13996
2016-10-22T10:01:16.646Z,13060
2016-10-22T10:02:27.254Z,13492
2016-10-22T10:03:37.836Z,11828
2016-10-22T10:04:48.420Z,10796
2016-10-22T10:05:59.100Z,10612
2016-10-22T10:07:09.851Z,10112
2016-10-22T10:08:20.495Z,9964
2016-10-22T10:09:31.244Z,10612
2016-10-22T10:10:41.855Z,10516
2016-10-22T10:11:52.355Z,11400
2016-10-22T10:13:02.879Z,9920
2016-10-22T10:14:13.424Z,10028
2016-10-22T10:15:23.976Z,10668
2016-10-22T10:16:34.574Z,10792
2016-10-22T10:17:45.132Z,11156
2016-10-22T10:18:55.704Z,11168
2016-10-22T10:20:06.291Z,14864
2016-10-22T10:21:16.826Z,13080
2016-10-22T10:22:27.407Z,11324
2016-10-22T10:23:38.031Z,10560
2016-10-22T10:24:48.578Z,8404
2016-10-22T10:25:59.146Z,8120
2016-10-22T10:27:09.660Z,7012
2016-10-22T10:28:20.237Z,7160
2016-10-22T10:29:30.868Z,6064
2016-10-22T10:30:41.763Z,6148
2016-10-22T10:31:52.300Z,6468
2016-10-22T10:33:02.895Z,6948
2016-10-22T10:34:13.434Z,6256
2016-10-22T10:35:24.007Z,7604
2016-10-22T10:36:34.594Z,7752
2016-10-22T10:37:45.162Z,7876
2016-10-22T10:38:55.700Z,7324
2016-10-22T10:40:06.230Z,7092
2016-10-22T10:41:16.751Z,7020
2016-10-22T10:42:27.307Z,8704
2016-10-22T10:43:37.844Z,9296
2016-10-22T10:44:48.360Z,8852
2016-10-22T10:45:58.961Z,7524
2016-10-22T10:47:09.630Z,6628
2016-10-22T10:48:20.200Z,7340
2016-10-22T10:49:30.778Z,8700
2016-10-22T10:50:41.374Z,9552
2016-10-22T10:51:51.975Z,11844
2016-10-22T10:53:02.557Z,13424
2016-10-22T10:54:13.085Z,16004
2016-10-22T10:55:23.626Z,16468
2016-10-22T10:56:34.136Z,14968
2016-10-22T10:57:44.693Z,17792
2016-10-22T10:58:55.256Z,21440
2016-10-22T11:00:05.759Z,20736
2016-10-22T11:01:16.360Z,16532
2016-10-22T11:02:26.882Z,14488
2016-10-22T11:03:37.429Z,18944
2016-10-22T11:04:48.015Z,16240
2016-10-22T11:05:58.606Z,17044
2016-10-22T11:07:09.145Z,18400
2016-10-22T11:08:19.684Z,16620
2016-10-22T11:09:30.203Z,12660
2016-10-22T11:10:40.831Z,11064
2016-10-22T11:11:51.316Z,10840
2016-10-22T11:13:01.867Z,8664
2016-10-22T11:14:12.393Z,9624
2016-10-22T11:15:22.902Z,10352
2016-10-22T11:16:33.507Z,12288
2016-10-22T11:17:44.043Z,13068
2016-10-22T11:18:54.529Z,9492
2016-10-22T11:20:05.035Z,8612
2016-10-22T11:21:15.553Z,9124
2016-10-22T11:22:26.062Z,11156
2016-10-22T11:23:36.583Z,11688
2016-10-22T11:24:47.087Z,12540
2016-10-22T11:25:57.637Z,11324
2016-10-22T11:27:08.166Z,10124
2016-10-22T11:28:18.666Z,12372
2016-10-22T11:29:29.179Z,13556
2016-10-22T11:30:39.663Z,15916
2016-10-22T11:31:50.128Z,13536
2016-10-22T11:33:00.648Z,12776
2016-10-22T11:34:11.268Z,13172
2016-10-22T11:35:21.780Z,12568
2016-10-22T11:36:32.307Z,13916
2016-10-22T11:37:42.826Z,17284
2016-10-22T11:38:53.330Z,14400
2016-10-22T11:40:03.919Z,15864
2016-10-22T11:41:14.450Z,16036
2016-10-22T11:42:24.979Z,14204
2016-10-22T11:43:35.463Z,13956
2016-10-22T11:44:46.014Z,16756
2016-10-22T11:45:56.563Z,14316
2016-10-22T11:47:07.053Z,17080
2016-10-22T11:48:17.572Z,14928
2016-10-22T11:49:28.119Z,13544
2016-10-22T11:50:38.644Z,16348
2016-10-22T11:51:49.114Z,13624
2016-10-22T11:52:59.656Z,15272
2016-10-22T11:54:10.156Z,12972
2016-10-22T11:55:20.634Z,12396
2016-10-22T11:56:31.148Z,10688
2016-10-22T11:57:41.751Z,8532
2016-10-22T11:58:52.292Z,8316
2016-10-22T12:00:02.825Z,9100
2016-10-22T12:01:13.339Z,10328
2016-10-22T12:02:23.818Z,11728
2016-10-22T12:03:34.395Z,9028
2016-10-22T12:04:44.902Z,11396
2016-10-22T12:05:55.408Z,9864
2016-10-22T12:07:05.926Z,10108
2016-10-22T12:08:16.395Z,10052
2016-10-22T12:09:27.045Z,9236
2016-10-22T12:10:37.560Z,9432
2016-10-22T12:11:48.088Z,9368
2016-10-22T12:12:58.591Z,9604
2016-10-22T12:14:09.134Z,10568
2016-10-22T12:15:19.657Z,10184
2016-10-22T12:16:30.126Z,9304
2016-10-22T12:17:40.657Z,8176
2016-10-22T12:18:51.208Z,7384
2016-10-22T12:20:01.695Z,7260
2016-10-22T12:21:12.240Z,7888
2016-10-22T12:22:22.720Z,9064
2016-10-22T12:23:33.187Z,10328
2016-10-22T12:24:43.652Z,10796
2016-10-22T12:25:54.114Z,15288
2016-10-22T12:27:04.568Z,17984
2016-10-22T12:28:15.025Z,16924
2016-10-22T12:29:25.488Z,13764
2016-10-22T12:30:36.435Z,10500
2016-10-22T12:31:46.914Z,8432
2016-10-22T12:32:57.476Z,8500
2016-10-22T12:34:07.955Z,10328
2016-10-22T12:35:18.904Z,17452
2016-10-22T12:36:29.379Z,30176
2016-10-22T12:37:39.862Z,40864
2016-10-22T12:38:50.326Z,41952
2016-10-22T12:40:00.794Z,52864
2016-10-22T12:41:11.272Z,66144
2016-10-22T12:42:21.749Z,49536
2016-10-22T12:43:32.199Z,45184
2016-10-22T12:44:42.668Z,48160
2016-10-22T12:45:53.148Z,30688
2016-10-22T12:47:03.629Z,23616
2016-10-22T12:48:14.101Z,22816
2016-10-22T12:49:24.575Z,24864
2016-10-22T12:50:35.137Z,29760
2016-10-22T12:51:45.605Z,31264
2016-10-22T12:52:56.059Z,30176
2016-10-22T12:54:06.842Z,26304
2016-10-22T12:55:17.388Z,20608
2016-10-22T12:56:28.054Z,19968
2016-10-22T12:57:38.609Z,22432
2016-10-22T12:58:49.129Z,20224
2016-10-22T12:59:59.630Z,17484
2016-10-22T13:01:10.649Z,19392
2016-10-22T13:02:21.187Z,20512
2016-10-22T13:03:31.728Z,20256
2016-10-22T13:04:42.271Z,16064
2016-10-22T13:05:52.775Z,18912
2016-10-22T13:07:03.292Z,19456
2016-10-22T13:08:13.835Z,18016
2016-10-22T13:09:24.391Z,13748
2016-10-22T13:10:34.949Z,10436
2016-10-22T13:11:45.495Z,11008
2016-10-22T13:12:56.061Z,13132
2016-10-22T13:14:06.738Z,15600
2016-10-22T13:15:17.313Z,14152
2016-10-22T13:16:27.863Z,13040
2016-10-22T13:17:38.420Z,10200
2016-10-22T13:18:48.963Z,10048
2016-10-22T13:19:59.647Z,10868
2016-10-22T13:21:10.663Z,13188
2016-10-22T13:22:21.214Z,15204
2016-10-22T13:23:31.754Z,16484
2016-10-22T13:24:42.302Z,16116
2016-10-22T13:25:53.383Z,20032
2016-10-22T13:27:03.960Z,27840
2016-10-22T13:28:14.593Z,25088
2016-10-22T13:29:25.178Z,18368
2016-10-22T13:30:35.763Z,15236
2016-10-22T13:31:46.456Z,17888
2016-10-22T13:32:57.045Z,16880
2016-10-22T13:34:07.633Z,19008
2016-10-22T13:35:18.231Z,18976
2016-10-22T13:36:29.320Z,18368
2016-10-22T13:37:39.908Z,18592
2016-10-22T13:38:50.493Z,17212
2016-10-22T13:40:01.080Z,16712
2016-10-22T13:41:11.666Z,17092
2016-10-22T13:42:22.252Z,15612
2016-10-22T13:43:32.955Z,17920
2016-10-22T13:44:43.541Z,20320
2016-10-22T13:45:54.120Z,25120
2016-10-22T13:47:04.716Z,29664
2016-10-22T13:48:15.306Z,31776
2016-10-22T13:49:25.947Z,38944
2016-10-22T13:50:36.525Z,40320
2016-10-22T13:51:47.106Z,38592
2016-10-22T13:52:57.734Z,44736
2016-10-22T13:54:08.818Z,50432
2016-10-22T13:55:19.500Z,59136
2016-10-22T13:56:30.099Z,51072
2016-10-22T13:57:40.673Z,51104
2016-10-22T13:58:51.258Z,42496
2016-10-22T14:00:01.781Z,43008
2016-10-22T14:01:12.323Z,41888
2016-10-22T14:02:22.856Z,38432
2016-10-22T14:03:33.434Z,38336
2016-10-22T14:04:43.986Z,35680
2016-10-22T14:05:54.552Z,30240
2016-10-22T14:07:05.160Z,38112
2016-10-22T14:08:15.712Z,49792
2016-10-22T14:09:26.289Z,47936
2016-10-22T14:10:36.842Z,45376
2016-10-22T14:11:47.418Z,42720
2016-10-22T14:12:58.013Z,43712
2016-10-22T14:14:08.593Z,47296
2016-10-22T14:15:19.127Z,51008
2016-10-22T14:16:29.686Z,55840
2016-10-22T14:17:40.219Z,64416
2016-10-22T14:18:50.855Z,67680
2016-10-22T14:20:01.365Z,57376
2016-10-22T14:21:11.892Z,47808
2016-10-22T14:22:22.473Z,40320
2016-10-22T14:23:32.996Z,35744
2016-10-22T14:24:43.642Z,37088
2016-10-22T14:25:54.157Z,36640
2016-10-22T14:27:04.707Z,34176
2016-10-22T14:28:15.284Z,25248
2016-10-22T14:29:26.329Z,18272
2016-10-22T14:30:36.873Z,19584
2016-10-22T14:31:47.432Z,21312
2016-10-22T14:32:57.953Z,23776
2016-10-22T14:34:08.457Z,30304
2016-10-22T14:35:18.981Z,27904
2016-10-22T14:36:29.648Z,21952
2016-10-22T14:37:40.189Z,19488
2016-10-22T14:38:50.781Z,18464
2016-10-22T14:40:01.330Z,19136
2016-10-22T14:41:11.858Z,19840
2016-10-22T14:42:22.514Z,18848
2016-10-22T14:43:33.051Z,18592
2016-10-22T14:44:43.574Z,20960
2016-10-22T14:45:54.127Z,20512
2016-10-22T14:47:04.663Z,20864
2016-10-22T14:48:15.189Z,23648
2016-10-22T14:49:25.659Z,29440
2016-10-22T14:50:36.154Z,32160
2016-10-22T14:51:46.713Z,37088
2016-10-22T14:52:57.256Z,34528
2016-10-22T14:54:07.923Z,21952
2016-10-22T14:55:18.405Z,19040
2016-10-22T14:56:28.996Z,23840
2016-10-22T14:57:39.533Z,28224
2016-10-22T14:58:50.096Z,25952
2016-10-22T15:00:00.738Z,26048
2016-10-22T15:01:11.324Z,26016
2016-10-22T15:02:21.857Z,25312
2016-10-22T15:03:32.404Z,22016
2016-10-22T15:04:43.441Z,22912
2016-10-22T15:05:54.021Z,32000
2016-10-22T15:07:04.530Z,45504
2016-10-22T15:08:15.105Z,48512
2016-10-22T15:09:25.687Z,50752
2016-10-22T15:10:36.266Z,54240
2016-10-22T15:11:46.842Z,54304
2016-10-22T15:12:57.418Z,33984
2016-10-22T15:14:08.467Z,30400
2016-10-22T15:15:18.989Z,30944
2016-10-22T15:16:30.067Z,26240
2016-10-22T15:17:40.706Z,27040
2016-10-22T15:18:51.275Z,30496
2016-10-22T15:20:01.825Z,33440
2016-10-22T15:21:12.361Z,41536
2016-10-22T15:22:22.901Z,53216
2016-10-22T15:23:33.444Z,52096
2016-10-22T15:24:43.998Z,42048
2016-10-22T15:25:54.555Z,33568
2016-10-22T15:27:05.106Z,25408
2016-10-22T15:28:15.674Z,23968
2016-10-22T15:29:26.237Z,21280
2016-10-22T15:30:36.782Z,15992
2016-10-22T15:31:47.321Z,15112
2016-10-22T15:32:57.883Z,15556
2016-10-22T15:34:08.428Z,16236
2016-10-22T15:35:19.024Z,18048
2016-10-22T15:36:29.583Z,21152
2016-10-22T15:37:40.108Z,22144
2016-10-22T15:38:50.580Z,23520
2016-10-22T15:40:01.106Z,22368
2016-10-22T15:41:11.678Z,21312
2016-10-22T15:42:22.138Z,18144
2016-10-22T15:43:32.600Z,18816
2016-10-22T15:44:43.063Z,19968
2016-10-22T15:45:53.569Z,18816
2016-10-22T15:47:04.136Z,20448
2016-10-22T15:48:14.634Z,24992
2016-10-22T15:49:25.094Z,23744
2016-10-22T15:50:35.561Z,18304
2016-10-22T15:51:46.021Z,15928
2016-10-22T15:52:56.512Z,15780
2016-10-22T15:54:06.961Z,14216
2016-10-22T15:55:17.435Z,15096
2016-10-22T15:56:27.897Z,17120
2016-10-22T15:57:38.340Z,16616
2016-10-22T15:58:49.302Z,17240
2016-10-22T15:59:59.760Z,21056
2016-10-22T16:01:10.246Z,20864
2016-10-22T16:02:20.709Z,20736
2016-10-22T16:03:31.167Z,21120
2016-10-22T16:04:41.729Z,17984
2016-10-22T16:05:52.190Z,15272
2016-10-22T16:07:03.116Z,14404
2016-10-22T16:08:13.573Z,13384
2016-10-22T16:09:24.046Z,13680
2016-10-22T16:10:34.537Z,15052
2016-10-22T16:11:44.995Z,15864
2016-10-22T16:12:55.462Z,16732
2016-10-22T16:14:05.962Z,18528
2016-10-22T16:15:16.419Z,18240
2016-10-22T16:16:26.977Z,17440
2016-10-22T16:17:37.428Z,16256
2016-10-22T16:18:47.884Z,16916
2016-10-22T16:19:58.347Z,15772